TAF Text Data
IDs:
Format:
Raw Decoded Include METAR

Data at: 1906 UTC 22 May 2019

KORD 221733Z 2218/2324 19016G28KT P6SM FEW040 SCT250
  FM230100 19012G20KT P6SM BKN040
  FM230400 21012KT 6SM -SHRA VCTS OVC040CB
  TEMPO 2305/2307 24020G30KT 1SM +TSRA BR OVC020CB
  FM230900 25008KT P6SM BKN035 OVC250
  FM231500 27012G18KT P6SM SCT040


KRFD 221733Z 2218/2318 18018G30KT P6SM FEW040 SCT250
  FM230200 20010KT 6SM -SHRA VCTS OVC040CB
  FM230500 24008KT P6SM BKN035 OVC250
  FM231500 27012G18KT P6SM SCT040